Time;durP1;ratioP1;P1;durP2;ratioP2;P2;SDS_P1;SDS_P2;PMS_P1;PMS_P2;Temp;Humidity;BMP_temperature;BMP_pressure;BME280_temperature;BME280_humidity;BME280_pressure;Samples;Min_cycle;Max_cycle;Signal;HPM_P1;HPM_P2
2023/08/02 00:01:13;;;;;;;4.40;1.67;;;;;;;;;;5015241;28;20030;-82
2023/08/02 00:03:38;;;;;;;4.13;1.38;;;;;;;;;;5030126;28;20038;-82
2023/08/02 00:06:04;;;;;;;4.22;1.67;;;;;;;;;;4999663;28;20061;-82
2023/08/02 00:08:29;;;;;;;4.30;1.60;;;;;;;;;;4998256;28;20116;-82
2023/08/02 00:10:57;;;;;;;4.07;1.48;;;;;;;;;;5005265;28;20049;-81
2023/08/02 00:13:23;;;;;;;4.03;1.38;;;;;;;;;;5011406;28;20042;-82
2023/08/02 00:15:48;;;;;;;5.38;1.80;;;;;;;;;;5010144;28;20038;-82
2023/08/02 00:18:13;;;;;;;5.05;1.70;;;;;;;;;;4998555;28;20038;-81
2023/08/02 00:20:39;;;;;;;4.10;1.60;;;;;;;;;;5004610;28;20065;-82
2023/08/02 00:23:05;;;;;;;3.55;1.80;;;;;;;;;;5014203;28;20034;-81
2023/08/02 00:25:31;;;;;;;7.97;1.48;;;;;;;;;;5031501;28;20029;-82
2023/08/02 00:27:57;;;;;;;3.53;1.50;;;;;;;;;;5011647;28;20044;-82
2023/08/02 00:30:22;;;;;;;5.85;1.83;;;;;;;;;;5045850;28;20034;-82
2023/08/02 00:32:48;;;;;;;5.55;1.67;;;;;;;;;;5003807;28;20037;-82
2023/08/02 00:35:15;;;;;;;3.30;1.70;;;;;;;;;;5001308;28;20049;-82
2023/08/02 00:37:41;;;;;;;3.90;1.67;;;;;;;;;;5001951;28;20053;-82
2023/08/02 00:40:07;;;;;;;4.50;1.60;;;;;;;;;;5011852;28;20064;-82
2023/08/02 00:42:32;;;;;;;4.43;2.00;;;;;;;;;;5043354;28;20113;-82
2023/08/02 00:44:58;;;;;;;5.43;1.90;;;;;;;;;;5005662;28;20038;-82
2023/08/02 00:47:24;;;;;;;4.93;1.80;;;;;;;;;;5000828;28;20052;-82
2023/08/02 00:49:49;;;;;;;3.67;1.67;;;;;;;;;;5036770;28;20049;-83
2023/08/02 00:52:15;;;;;;;3.83;1.63;;;;;;;;;;5026776;28;20034;-82
2023/08/02 00:54:41;;;;;;;4.20;1.63;;;;;;;;;;5008278;28;20482;-82
2023/08/02 00:57:09;;;;;;;4.80;1.88;;;;;;;;;;5013728;28;20512;-82
2023/08/02 00:59:45;;;;;;;5.95;1.92;;;;;;;;;;5009341;28;20040;-82
2023/08/02 01:02:10;;;;;;;4.65;1.70;;;;;;;;;;5014404;28;20460;-82
2023/08/02 01:04:36;;;;;;;4.45;1.60;;;;;;;;;;5017181;28;20057;-82
2023/08/02 01:07:11;;;;;;;4.75;2.03;;;;;;;;;;5020322;28;20535;-81
2023/08/02 01:09:47;;;;;;;3.28;1.60;;;;;;;;;;5018267;28;20034;-82
2023/08/02 01:12:16;;;;;;;5.35;1.70;;;;;;;;;;5017716;28;20069;-81
2023/08/02 01:14:49;;;;;;;4.30;1.60;;;;;;;;;;5012091;28;20037;-82
2023/08/02 01:17:15;;;;;;;4.75;1.98;;;;;;;;;;5028280;28;20459;-81
2023/08/02 01:19:42;;;;;;;4.68;1.85;;;;;;;;;;5039260;28;20037;-81
2023/08/02 01:22:07;;;;;;;4.13;1.67;;;;;;;;;;5010988;28;20065;-82
2023/08/02 01:24:35;;;;;;;4.38;1.73;;;;;;;;;;5015965;28;20046;-82
2023/08/02 01:27:21;;;;;;;4.55;1.70;;;;;;;;;;5018786;28;20512;-81
2023/08/02 01:29:47;;;;;;;5.15;1.70;;;;;;;;;;5015423;28;20096;-82
2023/08/02 01:32:14;;;;;;;5.55;1.98;;;;;;;;;;5012404;28;20539;-82
2023/08/02 01:34:40;;;;;;;5.47;1.60;;;;;;;;;;5009607;28;20037;-82
2023/08/02 01:37:05;;;;;;;5.32;1.98;;;;;;;;;;5026679;28;20037;-82
2023/08/02 01:39:31;;;;;;;2.83;1.30;;;;;;;;;;4998968;28;20119;-82
2023/08/02 01:41:56;;;;;;;4.38;1.83;;;;;;;;;;4998092;28;20042;-82
2023/08/02 01:44:21;;;;;;;4.32;1.55;;;;;;;;;;5006845;28;20026;-82
2023/08/02 01:46:47;;;;;;;4.57;2.00;;;;;;;;;;5001271;28;20121;-82
2023/08/02 01:49:12;;;;;;;3.90;1.80;;;;;;;;;;5019065;28;20457;-82
2023/08/02 01:51:37;;;;;;;3.65;1.58;;;;;;;;;;5005724;28;20037;-81
2023/08/02 01:54:03;;;;;;;7.82;2.55;;;;;;;;;;5028362;28;20041;-82
2023/08/02 01:56:28;;;;;;;5.22;1.55;;;;;;;;;;5010344;28;20064;-82
2023/08/02 01:58:56;;;;;;;4.45;1.58;;;;;;;;;;4999683;28;20117;-82
2023/08/02 02:01:21;;;;;;;;;;;;;;;;;;5018923;28;20099;-82
2023/08/02 02:03:46;;;;;;;4.50;1.75;;;;;;;;;;5005165;28;19933;-82
2023/08/02 02:06:12;;;;;;;5.25;1.52;;;;;;;;;;5009258;28;20037;-81
2023/08/02 02:08:37;;;;;;;3.65;1.60;;;;;;;;;;5021043;28;20456;-82
2023/08/02 02:11:04;;;;;;;4.43;1.80;;;;;;;;;;5036146;28;20061;-82
2023/08/02 02:13:30;;;;;;;5.18;1.85;;;;;;;;;;5008457;28;20516;-81
2023/08/02 02:15:55;;;;;;;3.90;1.75;;;;;;;;;;5021967;28;20104;-81
2023/08/02 02:18:24;;;;;;;3.70;1.70;;;;;;;;;;5023298;28;20037;-81
2023/08/02 02:20:49;;;;;;;5.53;1.98;;;;;;;;;;5029468;28;20100;-81
2023/08/02 02:23:15;;;;;;;3.90;1.80;;;;;;;;;;5008426;28;20029;-81
2023/08/02 02:25:40;;;;;;;4.30;2.00;;;;;;;;;;5031292;28;20517;-81
2023/08/02 02:28:07;;;;;;;4.68;2.10;;;;;;;;;;5003213;28;20033;-81
2023/08/02 02:30:35;;;;;;;4.22;2.03;;;;;;;;;;5002384;28;20099;-82
2023/08/02 02:33:03;;;;;;;3.58;1.90;;;;;;;;;;5006950;28;20029;-82
2023/08/02 02:35:28;;;;;;;4.45;2.00;;;;;;;;;;5013244;28;20764;-80
2023/08/02 02:37:53;;;;;;;7.63;2.58;;;;;;;;;;5011555;28;20034;-81
2023/08/02 02:40:20;;;;;;;3.63;2.03;;;;;;;;;;5016327;28;20037;-81
2023/08/02 02:42:45;;;;;;;4.68;1.85;;;;;;;;;;5000613;28;20038;-81
2023/08/02 02:45:10;;;;;;;5.45;2.00;;;;;;;;;;5001435;28;20034;-82
2023/08/02 02:47:36;;;;;;;5.63;2.00;;;;;;;;;;5034081;28;20021;-82
2023/08/02 02:50:02;;;;;;;5.07;2.05;;;;;;;;;;5005227;28;20045;-82
2023/08/02 02:52:28;;;;;;;5.05;2.00;;;;;;;;;;5021989;28;20150;-81
2023/08/02 02:54:53;;;;;;;4.47;1.85;;;;;;;;;;5020208;28;20120;-81
2023/08/02 02:57:19;;;;;;;5.35;2.20;;;;;;;;;;5006697;28;20026;-82
2023/08/02 02:59:44;;;;;;;5.20;2.05;;;;;;;;;;4999371;28;20126;-81
2023/08/02 03:02:09;;;;;;;4.65;1.92;;;;;;;;;;5021973;28;20563;-81
2023/08/02 03:04:35;;;;;;;6.60;2.30;;;;;;;;;;5028838;28;20057;-81
2023/08/02 03:07:00;;;;;;;4.72;1.98;;;;;;;;;;4998211;28;20046;-81
2023/08/02 03:09:26;;;;;;;6.72;2.05;;;;;;;;;;5035551;28;20034;-81
2023/08/02 03:11:51;;;;;;;3.47;1.80;;;;;;;;;;5022767;28;20112;-81
2023/08/02 03:14:17;;;;;;;7.53;2.47;;;;;;;;;;4999761;28;20025;-81
2023/08/02 03:16:45;;;;;;;4.32;2.05;;;;;;;;;;5005381;28;20043;-81
2023/08/02 03:19:12;;;;;;;5.43;2.25;;;;;;;;;;5023440;28;20513;-82
2023/08/02 03:21:41;;;;;;;4.22;1.98;;;;;;;;;;5026941;28;20092;-81
2023/08/02 03:24:06;;;;;;;7.90;2.33;;;;;;;;;;5015046;28;20041;-81
2023/08/02 03:26:31;;;;;;;3.75;2.03;;;;;;;;;;5005326;28;20089;-81
2023/08/02 03:28:57;;;;;;;6.43;2.35;;;;;;;;;;4997644;28;20034;-81
2023/08/02 03:31:22;;;;;;;8.05;2.28;;;;;;;;;;5012461;28;20037;-82
2023/08/02 03:33:48;;;;;;;4.55;2.13;;;;;;;;;;5006178;28;20148;-82
2023/08/02 03:36:15;;;;;;;6.13;2.30;;;;;;;;;;5030768;28;20037;-81
2023/08/02 03:38:41;;;;;;;5.75;2.30;;;;;;;;;;5002010;28;20037;-81
2023/08/02 03:41:07;;;;;;;6.28;2.28;;;;;;;;;;5005338;28;20060;-81
2023/08/02 03:43:32;;;;;;;4.18;2.28;;;;;;;;;;5013508;28;20511;-81
2023/08/02 03:45:57;;;;;;;5.43;2.22;;;;;;;;;;5023416;28;20102;-82
2023/08/02 03:48:23;;;;;;;5.63;2.40;;;;;;;;;;5038504;28;20045;-82
2023/08/02 03:50:48;;;;;;;6.45;2.38;;;;;;;;;;5013286;28;20094;-81
2023/08/02 03:53:13;;;;;;;4.35;2.40;;;;;;;;;;5007341;28;20037;-81
2023/08/02 03:55:39;;;;;;;7.32;2.50;;;;;;;;;;5010582;28;20034;-82
2023/08/02 03:58:10;;;;;;;8.25;2.35;;;;;;;;;;4988479;28;20069;-81
2023/08/02 04:00:35;;;;;;;6.72;2.70;;;;;;;;;;4999203;28;20072;-81
2023/08/02 04:03:01;;;;;;;6.75;2.58;;;;;;;;;;5015075;28;20065;-81
2023/08/02 04:05:26;;;;;;;8.10;2.75;;;;;;;;;;5029610;28;20397;-81
2023/08/02 04:07:52;;;;;;;5.72;2.58;;;;;;;;;;5011743;28;20046;-81
2023/08/02 04:10:17;;;;;;;5.90;2.50;;;;;;;;;;5033692;28;20045;-82
2023/08/02 04:12:42;;;;;;;6.13;2.67;;;;;;;;;;5019106;28;20037;-81
2023/08/02 04:15:08;;;;;;;6.53;2.50;;;;;;;;;;5021504;28;20041;-82
2023/08/02 04:17:36;;;;;;;7.13;2.42;;;;;;;;;;5031900;28;20036;-82
2023/08/02 04:20:02;;;;;;;6.22;2.83;;;;;;;;;;5013631;28;20044;-81
2023/08/02 04:22:31;;;;;;;6.13;2.30;;;;;;;;;;5005646;28;20385;-82
2023/08/02 04:24:59;;;;;;;4.43;2.20;;;;;;;;;;5005036;28;20711;-82
2023/08/02 04:27:24;;;;;;;4.95;2.33;;;;;;;;;;5030471;28;20026;-81
2023/08/02 04:29:50;;;;;;;5.05;2.63;;;;;;;;;;5003617;28;20049;-83
2023/08/02 04:32:15;;;;;;;5.57;2.42;;;;;;;;;;5009300;28;20037;-82
2023/08/02 04:34:41;;;;;;;6.05;2.90;;;;;;;;;;5017310;28;20033;-82
2023/08/02 04:37:06;;;;;;;5.25;2.50;;;;;;;;;;5017775;28;20041;-81
2023/08/02 04:39:31;;;;;;;7.07;2.95;;;;;;;;;;5008715;28;20026;-81
2023/08/02 04:42:02;;;;;;;7.75;2.65;;;;;;;;;;5009279;28;20042;-82
2023/08/02 04:44:28;;;;;;;5.30;2.50;;;;;;;;;;5017771;28;20034;-81
2023/08/02 04:46:54;;;;;;;3.75;2.28;;;;;;;;;;5003714;28;20398;-81
2023/08/02 04:49:19;;;;;;;4.53;2.60;;;;;;;;;;5005098;28;20061;-82
2023/08/02 04:51:44;;;;;;;5.00;2.60;;;;;;;;;;5002518;28;20496;-81
2023/08/02 04:54:13;;;;;;;4.95;2.58;;;;;;;;;;5015028;28;20572;-81
2023/08/02 04:56:38;;;;;;;4.22;2.35;;;;;;;;;;5010067;28;20033;-81
2023/08/02 04:59:05;;;;;;;5.95;2.50;;;;;;;;;;5035349;28;20029;-81
2023/08/02 05:01:31;;;;;;;6.25;2.97;;;;;;;;;;5023876;28;20523;-82
2023/08/02 05:03:57;;;;;;;7.88;2.80;;;;;;;;;;5010620;28;20029;-81
2023/08/02 05:06:22;;;;;;;7.03;2.60;;;;;;;;;;5014527;28;20038;-81
2023/08/02 05:08:48;;;;;;;4.97;2.40;;;;;;;;;;5016781;28;20405;-81
2023/08/02 05:11:13;;;;;;;5.32;2.20;;;;;;;;;;5006268;28;20458;-81
2023/08/02 05:13:41;;;;;;;4.88;2.50;;;;;;;;;;5009499;28;20061;-81
2023/08/02 05:16:14;;;;;;;5.03;2.30;;;;;;;;;;5007837;28;20401;-81
2023/08/02 05:18:40;;;;;;;5.43;2.35;;;;;;;;;;5000081;28;20057;-81
2023/08/02 05:21:16;;;;;;;3.65;2.08;;;;;;;;;;5005367;28;20034;-81
2023/08/02 05:23:41;;;;;;;3.55;2.10;;;;;;;;;;5037882;28;20091;-81
2023/08/02 05:26:07;;;;;;;4.50;2.15;;;;;;;;;;5017333;28;20041;-82
2023/08/02 05:28:33;;;;;;;5.97;2.20;;;;;;;;;;5022713;28;20037;-81
2023/08/02 05:30:59;;;;;;;6.20;2.45;;;;;;;;;;5034400;28;20456;-82
2023/08/02 05:33:24;;;;;;;5.63;2.30;;;;;;;;;;5006869;28;20117;-81
2023/08/02 05:35:49;;;;;;;6.57;2.20;;;;;;;;;;5020370;28;20038;-82
2023/08/02 05:38:15;;;;;;;4.68;2.00;;;;;;;;;;5007692;28;20030;-81
2023/08/02 05:40:40;;;;;;;3.65;1.98;;;;;;;;;;5013670;28;20509;-81
2023/08/02 05:43:06;;;;;;;5.88;2.15;;;;;;;;;;5000067;28;20072;-81
2023/08/02 05:45:32;;;;;;;5.10;1.67;;;;;;;;;;5001357;28;20389;-81
2023/08/02 05:47:58;;;;;;;4.60;1.83;;;;;;;;;;5019266;28;20045;-81
2023/08/02 05:50:23;;;;;;;6.75;2.55;;;;;;;;;;5016597;28;20033;-82
2023/08/02 05:52:48;;;;;;;7.20;2.30;;;;;;;;;;5014499;28;20163;-81
2023/08/02 05:55:14;;;;;;;4.70;1.77;;;;;;;;;;4999352;28;20509;-81
2023/08/02 05:57:39;;;;;;;6.72;2.20;;;;;;;;;;5001857;28;20045;-82
2023/08/02 06:00:14;;;;;;;5.10;2.08;;;;;;;;;;4999684;28;20041;-81
2023/08/02 06:02:39;;;;;;;4.05;1.83;;;;;;;;;;5009352;28;20057;-82
2023/08/02 06:05:05;;;;;;;4.15;1.80;;;;;;;;;;5011923;28;20075;-82
2023/08/02 06:07:31;;;;;;;6.75;1.90;;;;;;;;;;5007884;28;20046;-81
2023/08/02 06:09:56;;;;;;;3.88;1.48;;;;;;;;;;5014946;28;20038;-81
2023/08/02 06:12:22;;;;;;;5.70;1.95;;;;;;;;;;5032725;28;20025;-82
2023/08/02 06:14:47;;;;;;;4.32;1.55;;;;;;;;;;5006635;28;20042;-82
2023/08/02 06:17:12;;;;;;;5.63;1.80;;;;;;;;;;5035733;28;20486;-82
2023/08/02 06:19:41;;;;;;;5.50;1.85;;;;;;;;;;5005319;28;20481;-82
2023/08/02 06:22:07;;;;;;;4.10;1.75;;;;;;;;;;5030137;28;20532;-82
2023/08/02 06:24:33;;;;;;;8.52;2.00;;;;;;;;;;5004522;28;20072;-82
2023/08/02 06:26:58;;;;;;;5.13;1.70;;;;;;;;;;5012568;28;20060;-82
2023/08/02 06:29:23;;;;;;;5.47;1.92;;;;;;;;;;5013014;28;20037;-81
2023/08/02 06:31:49;;;;;;;3.65;1.45;;;;;;;;;;5006985;28;20555;-81
2023/08/02 06:34:14;;;;;;;4.45;1.70;;;;;;;;;;5001682;28;20076;-82
2023/08/02 06:36:40;;;;;;;4.78;1.55;;;;;;;;;;5003231;28;20036;-83
2023/08/02 06:39:08;;;;;;;4.88;1.50;;;;;;;;;;5007156;28;20149;-82
2023/08/02 06:41:34;;;;;;;3.70;1.40;;;;;;;;;;4999354;28;20129;-82
2023/08/02 06:43:59;;;;;;;4.25;1.50;;;;;;;;;;5001886;28;20822;-82
2023/08/02 06:46:24;;;;;;;4.63;1.60;;;;;;;;;;5003428;28;20076;-81
2023/08/02 06:48:50;;;;;;;3.95;1.60;;;;;;;;;;5034857;28;20457;-81
2023/08/02 06:51:15;;;;;;;6.15;1.67;;;;;;;;;;5014165;28;20037;-82
2023/08/02 06:53:41;;;;;;;4.50;1.73;;;;;;;;;;5005856;28;20497;-82
2023/08/02 06:56:13;;;;;;;6.38;1.63;;;;;;;;;;5006479;28;20041;-82
2023/08/02 06:58:39;;;;;;;5.25;1.60;;;;;;;;;;5006512;28;20042;-82
2023/08/02 07:01:15;;;;;;;4.45;1.42;;;;;;;;;;5026770;28;20581;-82
2023/08/02 07:03:40;;;;;;;4.00;1.60;;;;;;;;;;5017647;28;20080;-81
2023/08/02 07:06:14;;;;;;;4.35;1.50;;;;;;;;;;5005019;28;20040;-81
2023/08/02 07:08:40;;;;;;;5.32;1.80;;;;;;;;;;5002538;28;20044;-83
2023/08/02 07:11:06;;;;;;;5.78;1.42;;;;;;;;;;5026364;28;20037;-82
2023/08/02 07:13:32;;;;;;;6.80;1.52;;;;;;;;;;5034969;28;20033;-81
2023/08/02 07:15:57;;;;;;;4.95;1.50;;;;;;;;;;5021920;28;20095;-82
2023/08/02 07:18:23;;;;;;;3.58;1.73;;;;;;;;;;5021044;28;20436;-82
2023/08/02 07:20:48;;;;;;;3.55;1.45;;;;;;;;;;5033483;28;20182;-82
2023/08/02 07:23:14;;;;;;;3.63;1.35;;;;;;;;;;5033016;28;20103;-81
2023/08/02 07:25:39;;;;;;;4.57;1.30;;;;;;;;;;5026782;28;20036;-80
2023/08/02 07:28:04;;;;;;;4.30;1.30;;;;;;;;;;5024643;28;20037;-84
2023/08/02 07:30:30;;;;;;;4.93;1.20;;;;;;;;;;5033319;28;20371;-81
2023/08/02 07:32:55;;;;;;;4.38;1.52;;;;;;;;;;5016748;28;20577;-81
2023/08/02 07:35:21;;;;;;;3.92;1.50;;;;;;;;;;5028133;28;20125;-81
2023/08/02 07:37:46;;;;;;;5.35;1.23;;;;;;;;;;5022801;28;20063;-81
2023/08/02 07:40:13;;;;;;;3.55;1.23;;;;;;;;;;5036479;28;20049;-81
2023/08/02 07:42:39;;;;;;;3.92;1.25;;;;;;;;;;5018337;28;20053;-82
2023/08/02 07:45:08;;;;;;;2.88;1.23;;;;;;;;;;5009838;28;20105;-81
2023/08/02 07:47:34;;;;;;;5.38;1.20;;;;;;;;;;5030372;28;20038;-82
2023/08/02 07:50:00;;;;;;;4.78;1.08;;;;;;;;;;5016465;28;20030;-82
2023/08/02 07:52:26;;;;;;;5.85;1.45;;;;;;;;;;5000903;28;20032;-81
2023/08/02 07:54:53;;;;;;;3.97;1.25;;;;;;;;;;5034981;28;20042;-80
2023/08/02 07:57:39;;;;;;;2.88;1.20;;;;;;;;;;5033131;28;20077;-81
2023/08/02 08:00:05;;;;;;;4.87;1.20;;;;;;;;;;5011760;28;20030;-80
2023/08/02 08:02:31;;;;;;;3.75;1.02;;;;;;;;;;5000215;28;20041;-81
2023/08/02 08:04:56;;;;;;;5.40;1.48;;;;;;;;;;5022639;28;20042;-81
2023/08/02 08:07:22;;;;;;;4.68;1.30;;;;;;;;;;5036400;28;20448;-80
2023/08/02 08:09:50;;;;;;;4.30;1.20;;;;;;;;;;4990237;28;20034;-82
2023/08/02 08:12:15;;;;;;;3.22;1.13;;;;;;;;;;5001040;28;20117;-81
2023/08/02 08:14:41;;;;;;;3.60;1.10;;;;;;;;;;5016738;28;20125;-81
2023/08/02 08:17:07;;;;;;;6.97;1.25;;;;;;;;;;4998870;28;20030;-81
2023/08/02 08:19:35;;;;;;;3.80;1.27;;;;;;;;;;5037003;28;20473;-81
2023/08/02 08:22:01;;;;;;;3.17;1.08;;;;;;;;;;4991885;28;20078;-81
2023/08/02 08:24:26;;;;;;;5.05;1.38;;;;;;;;;;4998481;28;20572;-81
2023/08/02 08:26:55;;;;;;;3.30;1.00;;;;;;;;;;5004471;28;20556;-81
2023/08/02 08:29:20;;;;;;;5.20;1.48;;;;;;;;;;5031169;28;20030;-80
2023/08/02 08:31:46;;;;;;;4.18;1.10;;;;;;;;;;5000045;28;20052;-81
2023/08/02 08:34:13;;;;;;;3.90;1.05;;;;;;;;;;5033658;28;20037;-79
2023/08/02 08:36:39;;;;;;;3.53;1.10;;;;;;;;;;5026058;28;20459;-81
2023/08/02 08:39:05;;;;;;;4.13;0.98;;;;;;;;;;5005061;28;20038;-81
2023/08/02 08:41:30;;;;;;;3.53;1.00;;;;;;;;;;5010944;28;20531;-81
2023/08/02 08:43:56;;;;;;;6.07;1.00;;;;;;;;;;5017709;28;20049;-81
2023/08/02 08:46:22;;;;;;;3.08;0.80;;;;;;;;;;5013861;28;20060;-81
2023/08/02 08:48:48;;;;;;;3.90;0.98;;;;;;;;;;4998189;28;20519;-82
2023/08/02 08:51:14;;;;;;;4.75;1.45;;;;;;;;;;5000036;28;20029;-81
2023/08/02 08:53:43;;;;;;;4.53;1.00;;;;;;;;;;5010730;28;20498;-80
2023/08/02 08:56:10;;;;;;;3.08;0.70;;;;;;;;;;5032477;28;20033;-81
2023/08/02 08:58:37;;;;;;;2.90;0.88;;;;;;;;;;5004228;28;20120;-80
2023/08/02 09:01:03;;;;;;;2.45;0.82;;;;;;;;;;5008125;28;20065;-82
2023/08/02 09:03:29;;;;;;;3.40;0.90;;;;;;;;;;5019557;28;20121;-81
2023/08/02 09:05:58;;;;;;;2.72;0.65;;;;;;;;;;5009836;28;20120;-80
2023/08/02 09:08:24;;;;;;;3.67;0.95;;;;;;;;;;5001567;28;20030;-80
2023/08/02 09:10:49;;;;;;;2.88;0.75;;;;;;;;;;5029644;28;20046;-79
2023/08/02 09:13:27;;;;;;;3.45;0.82;;;;;;;;;;5012119;28;20033;-80
2023/08/02 09:16:13;;;;;;;2.55;0.80;;;;;;;;;;5009850;28;20500;-82
2023/08/02 09:18:46;;;;;;;7.40;1.02;;;;;;;;;;5036539;28;20033;-84
2023/08/02 09:21:14;;;;;;;3.40;1.17;;;;;;;;;;5015838;28;20501;-80
2023/08/02 09:23:48;;;;;;;3.45;1.00;;;;;;;;;;5025961;28;20185;-82
2023/08/02 09:26:18;;;;;;;4.68;1.00;;;;;;;;;;5027180;28;20141;-81
2023/08/02 09:29:00;;;;;;;3.47;1.00;;;;;;;;;;5027267;28;20032;-81
2023/08/02 09:31:27;;;;;;;3.05;0.75;;;;;;;;;;5007123;28;20083;-81
2023/08/02 09:33:53;;;;;;;;;;;;;;;;;;5019846;28;20033;-82
2023/08/02 09:36:28;;;;;;;2.20;0.70;;;;;;;;;;5040377;28;20307;-81
2023/08/02 09:39:14;;;;;;;3.70;0.90;;;;;;;;;;5037248;28;20037;-81
2023/08/02 09:41:40;;;;;;;3.30;0.80;;;;;;;;;;5002996;28;20033;-81
2023/08/02 09:44:06;;;;;;;1.77;0.60;;;;;;;;;;5018146;28;20048;-82
2023/08/02 09:46:36;;;;;;;3.63;1.00;;;;;;;;;;5004347;28;20041;-81
2023/08/02 09:49:18;;;;;;;2.90;0.90;;;;;;;;;;5034347;28;20497;-82
2023/08/02 09:51:44;;;;;;;2.35;0.75;;;;;;;;;;5009502;28;20040;-82
2023/08/02 09:54:11;;;;;;;4.67;0.90;;;;;;;;;;5030739;28;20195;-80
2023/08/02 09:56:38;;;;;;;3.95;0.93;;;;;;;;;;5021832;28;20030;-81
2023/08/02 09:59:04;;;;;;;2.45;0.80;;;;;;;;;;5004440;28;21023;-81
2023/08/02 10:01:31;;;;;;;3.53;0.82;;;;;;;;;;5014068;28;20105;-82
2023/08/02 10:04:08;;;;;;;4.05;0.82;;;;;;;;;;5006299;28;20510;-81
2023/08/02 10:06:37;;;;;;;4.18;0.98;;;;;;;;;;5011079;28;20370;-82
2023/08/02 10:09:05;;;;;;;3.20;0.70;;;;;;;;;;5014535;28;20101;-82
2023/08/02 10:11:55;;;;;;;3.42;0.90;;;;;;;;;;5010539;28;20048;-81
2023/08/02 10:14:21;;;;;;;2.63;0.80;;;;;;;;;;5051927;28;20025;-80
2023/08/02 10:16:46;;;;;;;2.88;0.73;;;;;;;;;;5022412;28;20059;-81
2023/08/02 10:19:12;;;;;;;3.17;0.90;;;;;;;;;;5023661;28;20056;-81
2023/08/02 10:21:39;;;;;;;1.65;0.52;;;;;;;;;;5022835;28;20489;-81
2023/08/02 10:24:04;;;;;;;2.13;0.70;;;;;;;;;;5019022;28;20504;-81
2023/08/02 10:26:30;;;;;;;3.92;0.90;;;;;;;;;;5028860;28;20033;-82
2023/08/02 10:28:59;;;;;;;2.30;0.60;;;;;;;;;;5037220;28;20128;-82
2023/08/02 10:31:25;;;;;;;2.45;1.00;;;;;;;;;;5029220;28;20040;-81
2023/08/02 10:33:51;;;;;;;2.65;0.63;;;;;;;;;;5017610;28;20136;-81
2023/08/02 10:36:16;;;;;;;3.55;0.95;;;;;;;;;;5015730;28;20540;-81
2023/08/02 10:38:42;;;;;;;2.42;0.75;;;;;;;;;;5027848;28;20037;-81
2023/08/02 10:41:09;;;;;;;1.63;0.60;;;;;;;;;;5035194;28;20056;-82
2023/08/02 10:43:54;;;;;;;3.35;0.80;;;;;;;;;;5031867;28;20041;-81
2023/08/02 10:46:25;;;;;;;3.10;0.80;;;;;;;;;;5015556;28;20033;-81
2023/08/02 10:48:51;;;;;;;2.97;0.98;;;;;;;;;;5013046;28;20049;-81
2023/08/02 10:51:29;;;;;;;2.88;0.80;;;;;;;;;;5013170;28;20037;-81
2023/08/02 10:54:13;;;;;;;3.38;0.90;;;;;;;;;;5010229;28;20046;-82
2023/08/02 10:56:51;;;;;;;1.80;0.60;;;;;;;;;;5022508;28;20037;-81
2023/08/02 10:59:22;;;;;;;3.45;0.80;;;;;;;;;;5022009;28;20520;-81
2023/08/02 11:04:17;;;;;;;3.08;0.98;;;;;;;;;;5013563;28;20042;-82
2023/08/02 11:06:43;;;;;;;3.45;0.90;;;;;;;;;;4995939;28;20041;-82
2023/08/02 11:09:09;;;;;;;3.75;0.90;;;;;;;;;;5001073;28;20376;-81
2023/08/02 11:11:35;;;;;;;4.22;1.08;;;;;;;;;;5016194;28;20041;-82
2023/08/02 11:14:01;;;;;;;3.40;1.15;;;;;;;;;;5012719;28;20408;-82
2023/08/02 11:16:27;;;;;;;4.00;1.10;;;;;;;;;;5002386;28;20041;-82
2023/08/02 11:18:55;;;;;;;3.72;1.20;;;;;;;;;;4991126;28;20048;-81
2023/08/02 11:21:20;;;;;;;4.28;1.55;;;;;;;;;;5014916;28;20128;-82
2023/08/02 11:23:49;;;;;;;4.90;1.27;;;;;;;;;;5006496;28;20227;-81
2023/08/02 11:26:17;;;;;;;4.13;1.35;;;;;;;;;;5005328;28;20076;-81
2023/08/02 11:28:45;;;;;;;4.82;1.30;;;;;;;;;;5012949;28;20034;-82
2023/08/02 11:31:11;;;;;;;5.82;1.35;;;;;;;;;;5012156;28;20396;-82
2023/08/02 11:33:37;;;;;;;3.85;1.45;;;;;;;;;;5007453;28;20026;-82
2023/08/02 11:36:04;;;;;;;5.75;1.40;;;;;;;;;;5005023;28;20041;-81
2023/08/02 11:38:30;;;;;;;3.83;1.60;;;;;;;;;;5000647;28;20149;-82
2023/08/02 11:40:56;;;;;;;3.65;1.50;;;;;;;;;;5000691;28;20042;-82
2023/08/02 11:43:37;;;;;;;4.70;1.50;;;;;;;;;;5002559;28;20041;-82
2023/08/02 11:46:12;;;;;;;3.95;1.50;;;;;;;;;;5021951;28;20038;-82
2023/08/02 11:48:38;;;;;;;3.47;1.23;;;;;;;;;;5014104;28;20080;-82
2023/08/02 11:51:03;;;;;;;5.32;1.50;;;;;;;;;;5002332;28;20397;-82
2023/08/02 11:53:29;;;;;;;3.88;1.20;;;;;;;;;;5013567;28;20033;-82
2023/08/02 11:55:54;;;;;;;4.57;1.25;;;;;;;;;;5000491;28;20439;-82
2023/08/02 11:58:20;;;;;;;3.85;1.40;;;;;;;;;;5001579;28;20385;-82
2023/08/02 12:00:45;;;;;;;3.35;1.40;;;;;;;;;;5004560;28;20401;-82
2023/08/02 12:03:12;;;;;;;3.85;1.50;;;;;;;;;;5001178;28;20136;-81
2023/08/02 12:05:38;;;;;;;3.63;1.10;;;;;;;;;;4994756;28;20026;-82
2023/08/02 12:08:11;;;;;;;6.55;1.50;;;;;;;;;;5003826;28;20033;-82
2023/08/02 12:10:40;;;;;;;5.95;1.50;;;;;;;;;;5013471;28;20284;-82
2023/08/02 12:13:14;;;;;;;3.25;1.40;;;;;;;;;;5000610;28;20029;-82
2023/08/02 12:15:44;;;;;;;6.72;1.52;;;;;;;;;;4995621;28;20540;-82
2023/08/02 12:18:09;;;;;;;3.40;1.52;;;;;;;;;;4993927;28;20117;-81
2023/08/02 12:20:37;;;;;;;4.22;1.70;;;;;;;;;;5005673;28;20137;-81
2023/08/02 12:23:03;;;;;;;4.75;1.73;;;;;;;;;;5002202;28;20052;-82
2023/08/02 12:25:42;;;;;;;4.20;1.35;;;;;;;;;;5003684;28;20484;-82
2023/08/02 12:28:15;;;;;;;4.78;1.40;;;;;;;;;;5005403;28;20041;-82
2023/08/02 12:30:40;;;;;;;3.63;1.55;;;;;;;;;;4981261;28;20045;-83
2023/08/02 12:33:06;;;;;;;4.05;1.27;;;;;;;;;;4984951;28;20182;-82
2023/08/02 12:35:34;;;;;;;3.20;1.20;;;;;;;;;;4972937;28;20152;-82
2023/08/02 12:38:00;;;;;;;4.63;1.67;;;;;;;;;;4983035;28;20433;-82
2023/08/02 12:40:25;;;;;;;4.45;1.65;;;;;;;;;;4994643;28;20069;-82
2023/08/02 12:42:50;;;;;;;4.40;1.60;;;;;;;;;;4987861;28;20409;-82
2023/08/02 12:45:16;;;;;;;4.65;1.60;;;;;;;;;;5012777;28;20034;-81
2023/08/02 12:47:41;;;;;;;3.42;1.88;;;;;;;;;;4997409;28;20489;-81
2023/08/02 12:50:07;;;;;;;3.58;1.40;;;;;;;;;;5017070;28;20361;-82
2023/08/02 12:52:32;;;;;;;4.63;1.80;;;;;;;;;;4997261;28;20413;-82
2023/08/02 12:54:59;;;;;;;4.45;1.70;;;;;;;;;;5009560;28;20399;-81
2023/08/02 12:57:25;;;;;;;4.63;1.70;;;;;;;;;;5016245;28;20030;-81
2023/08/02 12:59:50;;;;;;;4.28;1.42;;;;;;;;;;5006999;28;20377;-82
2023/08/02 13:02:15;;;;;;;7.13;1.80;;;;;;;;;;5005277;28;20058;-81
2023/08/02 13:04:41;;;;;;;4.22;1.80;;;;;;;;;;5005822;28;20068;-80
2023/08/02 13:07:06;;;;;;;4.20;1.90;;;;;;;;;;5002597;28;20069;-81
2023/08/02 13:09:33;;;;;;;4.60;1.50;;;;;;;;;;5003499;28;20048;-81
2023/08/02 13:11:59;;;;;;;5.85;1.58;;;;;;;;;;5015456;28;20468;-80
2023/08/02 13:14:25;;;;;;;6.10;1.80;;;;;;;;;;5004196;28;20116;-81
2023/08/02 13:16:50;;;;;;;3.67;1.60;;;;;;;;;;4990482;28;20133;-81
2023/08/02 13:19:18;;;;;;;3.60;1.58;;;;;;;;;;4984182;28;20124;-81
2023/08/02 13:21:44;;;;;;;5.50;1.70;;;;;;;;;;4996256;28;20044;-81
2023/08/02 13:24:09;;;;;;;4.32;1.63;;;;;;;;;;5002109;28;20034;-81
2023/08/02 13:26:34;;;;;;;4.57;1.50;;;;;;;;;;4980147;28;20081;-82
2023/08/02 13:29:09;;;;;;;4.05;1.60;;;;;;;;;;4984160;28;20037;-82
2023/08/02 13:31:34;;;;;;;3.80;1.55;;;;;;;;;;4997027;28;20038;-82
2023/08/02 13:34:00;;;;;;;5.53;1.70;;;;;;;;;;4985642;28;20590;-81
2023/08/02 13:36:25;;;;;;;4.07;1.55;;;;;;;;;;5011710;28;20029;-82
2023/08/02 13:38:53;;;;;;;3.28;1.58;;;;;;;;;;4978017;28;20576;-81
2023/08/02 13:41:19;;;;;;;4.68;1.60;;;;;;;;;;4996443;28;20386;-82
2023/08/02 13:43:44;;;;;;;5.22;1.50;;;;;;;;;;4983282;28;20033;-81
2023/08/02 13:46:10;;;;;;;4.07;1.65;;;;;;;;;;5005173;28;20485;-82
2023/08/02 13:48:35;;;;;;;5.05;1.50;;;;;;;;;;5002285;28;20389;-81
2023/08/02 13:51:01;;;;;;;5.75;1.70;;;;;;;;;;5007665;28;20081;-82
2023/08/02 13:53:26;;;;;;;4.60;1.50;;;;;;;;;;5000056;28;20030;-82
2023/08/02 13:55:57;;;;;;;3.05;1.50;;;;;;;;;;4995533;28;20065;-82
2023/08/02 13:58:24;;;;;;;5.70;1.77;;;;;;;;;;4983377;28;20061;-81
2023/08/02 14:00:49;;;;;;;;;;;;;;;;;;4997926;28;20049;-82
2023/08/02 14:03:15;;;;;;;5.18;1.48;;;;;;;;;;5012292;28;19932;-81
2023/08/02 14:05:40;;;;;;;4.43;1.55;;;;;;;;;;5003166;28;20033;-81
2023/08/02 14:08:06;;;;;;;5.43;1.88;;;;;;;;;;5017393;28;20540;-82
2023/08/02 14:10:31;;;;;;;3.63;1.50;;;;;;;;;;5001677;28;20029;-82
2023/08/02 14:12:59;;;;;;;3.13;1.38;;;;;;;;;;4987245;28;20042;-82
2023/08/02 14:15:25;;;;;;;3.00;1.40;;;;;;;;;;4988092;28;20081;-82
2023/08/02 14:17:50;;;;;;;3.53;1.50;;;;;;;;;;4968026;28;20042;-81
2023/08/02 14:20:16;;;;;;;3.13;1.30;;;;;;;;;;5019020;28;20044;-81
2023/08/02 14:22:41;;;;;;;4.75;1.23;;;;;;;;;;4994091;28;20045;-81
2023/08/02 14:25:07;;;;;;;3.85;1.50;;;;;;;;;;4996544;28;20072;-82
2023/08/02 14:27:32;;;;;;;3.10;1.27;;;;;;;;;;4981735;28;20026;-83
2023/08/02 14:29:58;;;;;;;3.75;1.50;;;;;;;;;;4988015;28;20034;-82
2023/08/02 14:32:23;;;;;;;3.00;1.40;;;;;;;;;;4955467;28;20477;-83
2023/08/02 14:34:49;;;;;;;4.68;1.50;;;;;;;;;;4988577;28;20030;-83
2023/08/02 14:37:14;;;;;;;2.55;1.13;;;;;;;;;;4999889;28;20088;-83
2023/08/02 14:39:39;;;;;;;2.95;1.30;;;;;;;;;;4985667;28;20049;-83
2023/08/02 14:42:08;;;;;;;4.13;1.58;;;;;;;;;;4986060;28;20046;-83
2023/08/02 14:44:33;;;;;;;3.35;1.30;;;;;;;;;;5009745;28;20042;-83